sensor_id;sensor_type;location;lat;lon;timestamp;pressure;altitude;pressure_sealevel;temperature;humidity
52625;BME280;38519;52.540;13.410;2023-04-12T00:00:05;100308.84;;;4.31;100.00
52625;BME280;38519;52.540;13.410;2023-04-12T00:02:35;100299.03;;;4.27;100.00
52625;BME280;38519;52.540;13.410;2023-04-12T00:05:01;100300.41;;;4.24;100.00
52625;BME280;38519;52.540;13.410;2023-04-12T00:07:27;100289.91;;;4.22;100.00
52625;BME280;38519;52.540;13.410;2023-04-12T00:09:53;100295.38;;;4.25;100.00
52625;BME280;38519;52.540;13.410;2023-04-12T00:12:19;100292.88;;;4.16;100.00
52625;BME280;38519;52.540;13.410;2023-04-12T00:14:44;100281.97;;;4.10;100.00
52625;BME280;38519;52.540;13.410;2023-04-12T00:17:10;100289.84;;;4.12;100.00
52625;BME280;38519;52.540;13.410;2023-04-12T00:19:36;100293.84;;;4.08;100.00
52625;BME280;38519;52.540;13.410;2023-04-12T00:22:05;100298.16;;;3.99;100.00
52625;BME280;38519;52.540;13.410;2023-04-12T00:24:30;100288.13;;;4.02;100.00
52625;BME280;38519;52.540;13.410;2023-04-12T00:26:56;100292.94;;;4.08;100.00
52625;BME280;38519;52.540;13.410;2023-04-12T00:29:21;100287.00;;;4.09;100.00
52625;BME280;38519;52.540;13.410;2023-04-12T00:31:46;100281.41;;;4.04;100.00
52625;BME280;38519;52.540;13.410;2023-04-12T00:34:11;100289.28;;;4.06;100.00
52625;BME280;38519;52.540;13.410;2023-04-12T00:36:36;100288.81;;;3.91;100.00
52625;BME280;38519;52.540;13.410;2023-04-12T00:39:02;100282.16;;;3.84;100.00
52625;BME280;38519;52.540;13.410;2023-04-12T00:41:27;100289.97;;;3.94;100.00
52625;BME280;38519;52.540;13.410;2023-04-12T00:43:52;100287.25;;;3.93;100.00
52625;BME280;38519;52.540;13.410;2023-04-12T00:46:18;100281.66;;;3.88;100.00
52625;BME280;38519;52.540;13.410;2023-04-12T00:48:43;100288.31;;;3.76;100.00
52625;BME280;38519;52.540;13.410;2023-04-12T00:51:11;100294.16;;;3.64;100.00
52625;BME280;38519;52.540;13.410;2023-04-12T00:53:37;100285.31;;;3.62;100.00
52625;BME280;38519;52.540;13.410;2023-04-12T00:56:03;100282.94;;;3.55;100.00
52625;BME280;38519;52.540;13.410;2023-04-12T00:58:29;100286.13;;;3.61;100.00
52625;BME280;38519;52.540;13.410;2023-04-12T01:00:55;100279.84;;;3.68;100.00
52625;BME280;38519;52.540;13.410;2023-04-12T01:03:21;100277.72;;;3.64;100.00
52625;BME280;38519;52.540;13.410;2023-04-12T01:08:37;100274.63;;;3.49;100.00
52625;BME280;38519;52.540;13.410;2023-04-12T01:13:40;100258.13;;;3.38;100.00
52625;BME280;38519;52.540;13.410;2023-04-12T01:18:47;100260.53;;;3.45;100.00
52625;BME280;38519;52.540;13.410;2023-04-12T01:21:15;100259.34;;;3.42;100.00
52625;BME280;38519;52.540;13.410;2023-04-12T01:24:02;100262.47;;;3.48;100.00
52625;BME280;38519;52.540;13.410;2023-04-12T01:26:40;100257.16;;;3.46;100.00
52625;BME280;38519;52.540;13.410;2023-04-12T01:29:09;100254.50;;;3.36;100.00
52625;BME280;38519;52.540;13.410;2023-04-12T01:31:35;100248.75;;;3.30;100.00
52625;BME280;38519;52.540;13.410;2023-04-12T01:34:01;100243.47;;;3.28;100.00
52625;BME280;38519;52.540;13.410;2023-04-12T01:36:27;100244.09;;;3.26;100.00
52625;BME280;38519;52.540;13.410;2023-04-12T01:38:53;100243.97;;;3.24;100.00
52625;BME280;38519;52.540;13.410;2023-04-12T01:41:20;100236.06;;;3.23;100.00
52625;BME280;38519;52.540;13.410;2023-04-12T01:43:46;100237.44;;;3.19;100.00
52625;BME280;38519;52.540;13.410;2023-04-12T01:46:12;100232.41;;;3.21;100.00
52625;BME280;38519;52.540;13.410;2023-04-12T01:48:38;100233.00;;;3.27;100.00
52625;BME280;38519;52.540;13.410;2023-04-12T01:53:42;100231.56;;;3.39;100.00
52625;BME280;38519;52.540;13.410;2023-04-12T01:56:09;100241.28;;;3.42;100.00
52625;BME280;38519;52.540;13.410;2023-04-12T01:58:36;100234.16;;;3.39;100.00
52625;BME280;38519;52.540;13.410;2023-04-12T02:01:04;100235.53;;;3.36;100.00
52625;BME280;38519;52.540;13.410;2023-04-12T02:03:29;100228.69;;;3.36;100.00
52625;BME280;38519;52.540;13.410;2023-04-12T02:05:55;100225.78;;;3.42;100.00
52625;BME280;38519;52.540;13.410;2023-04-12T02:08:21;100232.19;;;3.37;100.00
52625;BME280;38519;52.540;13.410;2023-04-12T02:10:47;100229.94;;;3.31;100.00
52625;BME280;38519;52.540;13.410;2023-04-12T02:13:12;100221.78;;;3.26;100.00
52625;BME280;38519;52.540;13.410;2023-04-12T02:15:37;100219.47;;;3.30;100.00
52625;BME280;38519;52.540;13.410;2023-04-12T02:18:04;100209.31;;;3.31;100.00
52625;BME280;38519;52.540;13.410;2023-04-12T02:20:29;100214.59;;;3.33;100.00
52625;BME280;38519;52.540;13.410;2023-04-12T02:22:55;100209.75;;;3.36;100.00
52625;BME280;38519;52.540;13.410;2023-04-12T02:25:20;100207.00;;;3.34;100.00
52625;BME280;38519;52.540;13.410;2023-04-12T02:27:45;100206.88;;;3.33;100.00
52625;BME280;38519;52.540;13.410;2023-04-12T02:30:11;100202.03;;;3.27;100.00
52625;BME280;38519;52.540;13.410;2023-04-12T02:32:37;100196.72;;;3.25;100.00
52625;BME280;38519;52.540;13.410;2023-04-12T02:35:11;100197.41;;;3.14;100.00
52625;BME280;38519;52.540;13.410;2023-04-12T02:37:38;100197.53;;;3.16;100.00
52625;BME280;38519;52.540;13.410;2023-04-12T02:40:03;100196.94;;;3.18;100.00
52625;BME280;38519;52.540;13.410;2023-04-12T02:42:30;100195.53;;;3.22;100.00
52625;BME280;38519;52.540;13.410;2023-04-12T02:44:55;100188.03;;;3.34;100.00
52625;BME280;38519;52.540;13.410;2023-04-12T02:47:21;100185.97;;;3.21;100.00
52625;BME280;38519;52.540;13.410;2023-04-12T02:49:46;100178.00;;;3.09;100.00
52625;BME280;38519;52.540;13.410;2023-04-12T02:52:11;100175.13;;;3.06;100.00
52625;BME280;38519;52.540;13.410;2023-04-12T02:54:36;100173.22;;;2.95;100.00
52625;BME280;38519;52.540;13.410;2023-04-12T02:57:02;100180.34;;;2.97;100.00
52625;BME280;38519;52.540;13.410;2023-04-12T02:59:28;100174.63;;;2.91;100.00
52625;BME280;38519;52.540;13.410;2023-04-12T03:01:53;100180.97;;;2.95;100.00
52625;BME280;38519;52.540;13.410;2023-04-12T03:04:19;100170.66;;;2.95;100.00
52625;BME280;38519;52.540;13.410;2023-04-12T03:06:46;100167.31;;;2.96;100.00
52625;BME280;38519;52.540;13.410;2023-04-12T03:09:17;100160.03;;;2.91;100.00
52625;BME280;38519;52.540;13.410;2023-04-12T03:11:43;100152.59;;;2.95;100.00
52625;BME280;38519;52.540;13.410;2023-04-12T03:14:09;100144.56;;;2.91;100.00
52625;BME280;38519;52.540;13.410;2023-04-12T03:16:34;100140.16;;;2.90;100.00
52625;BME280;38519;52.540;13.410;2023-04-12T03:19:00;100139.91;;;2.87;100.00
52625;BME280;38519;52.540;13.410;2023-04-12T03:21:27;100140.66;;;2.86;100.00
52625;BME280;38519;52.540;13.410;2023-04-12T03:23:52;100138.09;;;2.86;100.00
52625;BME280;38519;52.540;13.410;2023-04-12T03:26:17;100139.03;;;2.78;100.00
52625;BME280;38519;52.540;13.410;2023-04-12T03:28:44;100143.16;;;2.76;100.00
52625;BME280;38519;52.540;13.410;2023-04-12T03:31:09;100137.69;;;2.73;100.00
52625;BME280;38519;52.540;13.410;2023-04-12T03:33:36;100141.94;;;2.72;100.00
52625;BME280;38519;52.540;13.410;2023-04-12T03:36:02;100143.16;;;2.76;100.00
52625;BME280;38519;52.540;13.410;2023-04-12T03:38:27;100138.31;;;2.70;100.00
52625;BME280;38519;52.540;13.410;2023-04-12T03:40:53;100131.97;;;2.67;100.00
52625;BME280;38519;52.540;13.410;2023-04-12T03:43:18;100131.03;;;2.66;100.00
52625;BME280;38519;52.540;13.410;2023-04-12T03:45:43;100120.31;;;2.62;100.00
52625;BME280;38519;52.540;13.410;2023-04-12T03:48:08;100121.97;;;2.61;100.00
52625;BME280;38519;52.540;13.410;2023-04-12T03:50:35;100118.63;;;2.62;100.00
52625;BME280;38519;52.540;13.410;2023-04-12T03:53:09;100107.84;;;2.66;100.00
52625;BME280;38519;52.540;13.410;2023-04-12T03:55:34;100100.38;;;2.69;100.00
52625;BME280;38519;52.540;13.410;2023-04-12T03:58:01;100102.53;;;2.65;100.00
52625;BME280;38519;52.540;13.410;2023-04-12T04:00:27;100090.59;;;2.57;100.00
52625;BME280;38519;52.540;13.410;2023-04-12T04:02:52;100085.28;;;2.55;100.00
52625;BME280;38519;52.540;13.410;2023-04-12T04:05:17;100079.69;;;2.50;100.00
52625;BME280;38519;52.540;13.410;2023-04-12T04:07:42;100072.19;;;2.43;100.00
52625;BME280;38519;52.540;13.410;2023-04-12T04:10:08;100075.94;;;2.47;100.00
52625;BME280;38519;52.540;13.410;2023-04-12T04:12:33;100082.91;;;2.48;100.00
52625;BME280;38519;52.540;13.410;2023-04-12T04:14:59;100082.91;;;2.48;100.00
52625;BME280;38519;52.540;13.410;2023-04-12T04:17:24;100081.09;;;2.47;100.00
52625;BME280;38519;52.540;13.410;2023-04-12T04:19:49;100083.81;;;2.48;100.00
52625;BME280;38519;52.540;13.410;2023-04-12T04:22:15;100081.25;;;2.48;100.00
52625;BME280;38519;52.540;13.410;2023-04-12T04:24:41;100081.88;;;2.46;100.00
52625;BME280;38519;52.540;13.410;2023-04-12T04:27:07;100083.72;;;2.38;100.00
52625;BME280;38519;52.540;13.410;2023-04-12T04:29:32;100082.94;;;2.39;100.00
52625;BME280;38519;52.540;13.410;2023-04-12T04:31:57;100077.53;;;2.36;100.00
52625;BME280;38519;52.540;13.410;2023-04-12T04:34:23;100090.81;;;2.41;100.00
52625;BME280;38519;52.540;13.410;2023-04-12T04:36:49;100082.34;;;2.42;100.00
52625;BME280;38519;52.540;13.410;2023-04-12T04:39:14;100075.47;;;2.51;100.00
52625;BME280;38519;52.540;13.410;2023-04-12T04:41:39;100077.41;;;2.53;100.00
52625;BME280;38519;52.540;13.410;2023-04-12T04:44:05;100070.63;;;2.45;100.00
52625;BME280;38519;52.540;13.410;2023-04-12T04:46:34;100066.41;;;2.46;100.00
52625;BME280;38519;52.540;13.410;2023-04-12T04:49:01;100070.63;;;2.45;100.00
52625;BME280;38519;52.540;13.410;2023-04-12T04:51:27;100070.63;;;2.45;100.00
52625;BME280;38519;52.540;13.410;2023-04-12T04:53:53;100066.06;;;2.51;100.00
52625;BME280;38519;52.540;13.410;2023-04-12T04:56:18;100071.66;;;2.56;100.00
52625;BME280;38519;52.540;13.410;2023-04-12T04:58:43;100066.50;;;2.56;100.00
52625;BME280;38519;52.540;13.410;2023-04-12T05:01:08;100055.31;;;2.55;100.00
52625;BME280;38519;52.540;13.410;2023-04-12T05:03:37;100059.53;;;2.55;100.00
52625;BME280;38519;52.540;13.410;2023-04-12T05:06:05;100062.81;;;2.63;100.00
52625;BME280;38519;52.540;13.410;2023-04-12T05:08:30;100063.75;;;2.63;100.00
52625;BME280;38519;52.540;13.410;2023-04-12T05:10:55;100064.66;;;2.64;100.00
52625;BME280;38519;52.540;13.410;2023-04-12T05:13:21;100065.84;;;2.67;100.00
52625;BME280;38519;52.540;13.410;2023-04-12T05:15:47;100063.84;;;2.73;100.00
52625;BME280;38519;52.540;13.410;2023-04-12T05:18:13;100067.31;;;2.74;100.00
52625;BME280;38519;52.540;13.410;2023-04-12T05:20:38;100062.59;;;2.79;100.00
52625;BME280;38519;52.540;13.410;2023-04-12T05:23:03;100064.78;;;2.93;100.00
52625;BME280;38519;52.540;13.410;2023-04-12T05:25:29;100064.63;;;2.91;100.00
52625;BME280;38519;52.540;13.410;2023-04-12T05:27:54;100059.75;;;2.95;100.00
52625;BME280;38519;52.540;13.410;2023-04-12T05:30:20;100065.34;;;2.99;100.00
52625;BME280;38519;52.540;13.410;2023-04-12T05:32:45;100058.78;;;3.03;100.00
52625;BME280;38519;52.540;13.410;2023-04-12T05:35:10;100054.63;;;3.14;100.00
52625;BME280;38519;52.540;13.410;2023-04-12T05:37:35;100052.31;;;3.17;100.00
52625;BME280;38519;52.540;13.410;2023-04-12T05:40:00;100050.78;;;3.19;100.00
52625;BME280;38519;52.540;13.410;2023-04-12T05:42:26;100050.78;;;3.19;100.00
52625;BME280;38519;52.540;13.410;2023-04-12T05:44:52;100046.66;;;3.21;100.00
52625;BME280;38519;52.540;13.410;2023-04-12T05:47:19;100042.34;;;3.30;100.00
52625;BME280;38519;52.540;13.410;2023-04-12T05:49:45;100032.91;;;3.31;100.00
52625;BME280;38519;52.540;13.410;2023-04-12T05:52:10;100027.19;;;3.43;100.00
52625;BME280;38519;52.540;13.410;2023-04-12T05:54:35;100031.00;;;3.57;100.00
52625;BME280;38519;52.540;13.410;2023-04-12T05:57:00;100015.66;;;3.59;100.00
52625;BME280;38519;52.540;13.410;2023-04-12T05:59:26;100014.25;;;3.62;100.00
52625;BME280;38519;52.540;13.410;2023-04-12T06:01:51;100010.53;;;3.69;100.00
52625;BME280;38519;52.540;13.410;2023-04-12T06:04:16;100017.91;;;3.75;100.00
52625;BME280;38519;52.540;13.410;2023-04-12T06:06:42;100004.75;;;3.82;100.00
52625;BME280;38519;52.540;13.410;2023-04-12T06:09:07;100004.69;;;3.91;100.00
52625;BME280;38519;52.540;13.410;2023-04-12T06:11:34;99998.09;;;3.94;100.00
52625;BME280;38519;52.540;13.410;2023-04-12T06:14:00;99994.16;;;4.08;100.00
52625;BME280;38519;52.540;13.410;2023-04-12T06:16:26;99995.72;;;4.16;100.00
52625;BME280;38519;52.540;13.410;2023-04-12T06:18:51;99990.41;;;4.25;100.00
52625;BME280;38519;52.540;13.410;2023-04-12T06:21:17;99982.94;;;4.28;100.00
52625;BME280;38519;52.540;13.410;2023-04-12T06:23:42;99987.34;;;4.29;100.00
52625;BME280;38519;52.540;13.410;2023-04-12T06:26:07;99974.81;;;4.34;100.00
52625;BME280;38519;52.540;13.410;2023-04-12T06:28:33;99973.78;;;4.42;100.00
52625;BME280;38519;52.540;13.410;2023-04-12T06:30:58;99971.31;;;4.54;100.00
52625;BME280;38519;52.540;13.410;2023-04-12T06:33:23;99969.63;;;4.65;100.00
52625;BME280;38519;52.540;13.410;2023-04-12T06:35:48;99966.56;;;4.69;100.00
52625;BME280;38519;52.540;13.410;2023-04-12T06:38:14;99961.22;;;4.78;100.00
52625;BME280;38519;52.540;13.410;2023-04-12T06:40:39;99960.06;;;4.84;100.00
52625;BME280;38519;52.540;13.410;2023-04-12T06:43:05;99958.88;;;4.91;100.00
52625;BME280;38519;52.540;13.410;2023-04-12T06:45:30;99960.44;;;4.99;100.00
52625;BME280;38519;52.540;13.410;2023-04-12T06:47:55;99956.13;;;5.10;100.00
52625;BME280;38519;52.540;13.410;2023-04-12T06:50:21;99959.47;;;5.19;100.00
52625;BME280;38519;52.540;13.410;2023-04-12T06:52:46;99950.66;;;5.27;100.00
52625;BME280;38519;52.540;13.410;2023-04-12T06:55:12;99950.50;;;5.36;100.00
52625;BME280;38519;52.540;13.410;2023-04-12T06:57:38;99946.84;;;5.44;100.00
52625;BME280;38519;52.540;13.410;2023-04-12T07:00:05;99944.97;;;5.54;100.00
52625;BME280;38519;52.540;13.410;2023-04-12T07:02:31;99942.88;;;5.60;100.00
52625;BME280;38519;52.540;13.410;2023-04-12T07:04:56;99944.88;;;5.74;100.00
52625;BME280;38519;52.540;13.410;2023-04-12T07:07:21;99942.53;;;5.77;100.00
52625;BME280;38519;52.540;13.410;2023-04-12T07:09:46;99943.03;;;5.83;100.00
52625;BME280;38519;52.540;13.410;2023-04-12T07:12:12;99930.88;;;6.05;100.00
52625;BME280;38519;52.540;13.410;2023-04-12T07:14:38;99934.91;;;6.23;100.00
52625;BME280;38519;52.540;13.410;2023-04-12T07:17:03;99936.03;;;6.49;100.00
52625;BME280;38519;52.540;13.410;2023-04-12T07:19:28;99930.56;;;6.80;100.00
52625;BME280;38519;52.540;13.410;2023-04-12T07:21:55;99930.31;;;6.88;100.00
52625;BME280;38519;52.540;13.410;2023-04-12T07:24:20;99919.81;;;6.75;100.00
52625;BME280;38519;52.540;13.410;2023-04-12T07:26:45;99916.66;;;6.67;100.00
52625;BME280;38519;52.540;13.410;2023-04-12T07:29:11;99915.28;;;6.72;100.00
52625;BME280;38519;52.540;13.410;2023-04-12T07:31:36;99919.16;;;6.78;100.00
52625;BME280;38519;52.540;13.410;2023-04-12T07:34:01;99913.41;;;6.82;100.00
52625;BME280;38519;52.540;13.410;2023-04-12T07:36:26;99912.72;;;6.96;100.00
52625;BME280;38519;52.540;13.410;2023-04-12T07:38:52;99902.69;;;6.89;100.00
52625;BME280;38519;52.540;13.410;2023-04-12T07:41:19;99901.22;;;7.04;100.00
52625;BME280;38519;52.540;13.410;2023-04-12T07:43:45;99898.41;;;7.25;100.00
52625;BME280;38519;52.540;13.410;2023-04-12T07:46:10;99900.78;;;7.34;100.00
52625;BME280;38519;52.540;13.410;2023-04-12T07:48:36;99897.03;;;7.42;100.00
52625;BME280;38519;52.540;13.410;2023-04-12T07:51:01;99898.81;;;7.55;100.00
52625;BME280;38519;52.540;13.410;2023-04-12T07:53:27;99888.16;;;7.63;100.00
52625;BME280;38519;52.540;13.410;2023-04-12T07:55:52;99887.56;;;7.79;100.00
52625;BME280;38519;52.540;13.410;2023-04-12T07:58:19;99880.25;;;7.74;100.00
52625;BME280;38519;52.540;13.410;2023-04-12T08:00:45;99879.09;;;7.82;100.00
52625;BME280;38519;52.540;13.410;2023-04-12T08:03:11;99871.22;;;7.94;100.00
52625;BME280;38519;52.540;13.410;2023-04-12T08:05:36;99868.56;;;8.06;100.00
52625;BME280;38519;52.540;13.410;2023-04-12T08:08:02;99863.19;;;8.02;100.00
52625;BME280;38519;52.540;13.410;2023-04-12T08:10:28;99871.16;;;8.06;100.00
52625;BME280;38519;52.540;13.410;2023-04-12T08:12:53;99864.84;;;8.27;100.00
52625;BME280;38519;52.540;13.410;2023-04-12T08:15:18;99849.66;;;8.33;100.00
52625;BME280;38519;52.540;13.410;2023-04-12T08:17:45;99849.38;;;8.42;100.00
52625;BME280;38519;52.540;13.410;2023-04-12T08:20:10;99850.66;;;8.61;100.00
52625;BME280;38519;52.540;13.410;2023-04-12T08:22:36;99844.53;;;8.60;99.47
52625;BME280;38519;52.540;13.410;2023-04-12T08:25:01;99843.25;;;8.80;96.64
52625;BME280;38519;52.540;13.410;2023-04-12T08:27:28;99849.16;;;8.78;96.02
52625;BME280;38519;52.540;13.410;2023-04-12T08:29:53;99840.13;;;8.86;96.69
52625;BME280;38519;52.540;13.410;2023-04-12T08:32:18;99840.13;;;8.86;96.44
52625;BME280;38519;52.540;13.410;2023-04-12T08:34:43;99836.25;;;9.06;93.37
52625;BME280;38519;52.540;13.410;2023-04-12T08:37:09;99838.13;;;9.22;91.63
52625;BME280;38519;52.540;13.410;2023-04-12T08:39:34;99835.50;;;9.35;91.36
52625;BME280;38519;52.540;13.410;2023-04-12T08:42:02;99830.00;;;9.30;90.33
52625;BME280;38519;52.540;13.410;2023-04-12T08:44:38;99820.75;;;9.36;90.57
52625;BME280;38519;52.540;13.410;2023-04-12T08:47:04;99825.53;;;9.56;88.52
52625;BME280;38519;52.540;13.410;2023-04-12T08:49:30;99814.88;;;9.66;88.83
52625;BME280;38519;52.540;13.410;2023-04-12T08:51:56;99812.03;;;9.77;86.21
52625;BME280;38519;52.540;13.410;2023-04-12T08:54:23;99808.03;;;9.69;85.13
52625;BME280;38519;52.540;13.410;2023-04-12T08:56:49;99807.50;;;9.74;86.52
52625;BME280;38519;52.540;13.410;2023-04-12T08:59:17;99800.31;;;9.98;85.74
52625;BME280;38519;52.540;13.410;2023-04-12T09:01:42;99799.94;;;10.07;85.46
52625;BME280;38519;52.540;13.410;2023-04-12T09:04:08;99791.31;;;10.08;86.03
52625;BME280;38519;52.540;13.410;2023-04-12T09:06:33;99797.13;;;10.32;85.33
52625;BME280;38519;52.540;13.410;2023-04-12T09:08:58;99790.88;;;10.30;84.93
52625;BME280;38519;52.540;13.410;2023-04-12T09:11:26;99786.91;;;10.22;85.77
52625;BME280;38519;52.540;13.410;2023-04-12T09:13:52;99779.94;;;10.36;84.91
52625;BME280;38519;52.540;13.410;2023-04-12T09:16:31;99778.59;;;10.43;84.92
52625;BME280;38519;52.540;13.410;2023-04-12T09:18:57;99775.34;;;10.62;84.01
52625;BME280;38519;52.540;13.410;2023-04-12T09:21:26;99775.53;;;10.50;79.91
52625;BME280;38519;52.540;13.410;2023-04-12T09:24:07;99779.31;;;10.55;80.37
52625;BME280;38519;52.540;13.410;2023-04-12T09:26:37;99770.66;;;10.71;78.51
52625;BME280;38519;52.540;13.410;2023-04-12T09:29:03;99759.63;;;10.77;79.18
52625;BME280;38519;52.540;13.410;2023-04-12T09:31:28;99754.75;;;10.83;77.69
52625;BME280;38519;52.540;13.410;2023-04-12T09:34:06;99758.59;;;11.04;78.17
52625;BME280;38519;52.540;13.410;2023-04-12T09:36:38;99763.06;;;10.75;79.66
52625;BME280;38519;52.540;13.410;2023-04-12T09:39:04;99748.47;;;10.79;80.07
52625;BME280;38519;52.540;13.410;2023-04-12T09:41:30;99744.84;;;10.92;81.35
52625;BME280;38519;52.540;13.410;2023-04-12T09:43:59;99730.56;;;11.02;81.12
52625;BME280;38519;52.540;13.410;2023-04-12T09:46:24;99727.19;;;11.36;80.40
52625;BME280;38519;52.540;13.410;2023-04-12T09:48:54;99730.25;;;11.12;80.60
52625;BME280;38519;52.540;13.410;2023-04-12T09:51:26;99719.16;;;11.16;81.18
52625;BME280;38519;52.540;13.410;2023-04-12T09:53:52;99717.13;;;11.43;80.27
52625;BME280;38519;52.540;13.410;2023-04-12T09:56:18;99709.13;;;11.57;80.38
52625;BME280;38519;52.540;13.410;2023-04-12T09:58:46;99710.41;;;11.65;78.46
52625;BME280;38519;52.540;13.410;2023-04-12T10:01:14;99694.47;;;11.93;78.59
52625;BME280;38519;52.540;13.410;2023-04-12T10:03:40;99698.38;;;12.01;79.59
52625;BME280;38519;52.540;13.410;2023-04-12T10:06:05;99688.09;;;11.88;79.81
52625;BME280;38519;52.540;13.410;2023-04-12T10:08:31;99689.63;;;12.01;79.37
52625;BME280;38519;52.540;13.410;2023-04-12T10:10:56;99679.19;;;12.19;79.53
52625;BME280;38519;52.540;13.410;2023-04-12T10:13:22;99674.25;;;12.07;79.07
52625;BME280;38519;52.540;13.410;2023-04-12T10:15:50;99668.34;;;12.11;78.11
52625;BME280;38519;52.540;13.410;2023-04-12T10:18:17;99661.16;;;12.07;78.53
52625;BME280;38519;52.540;13.410;2023-04-12T10:20:42;99651.28;;;12.01;79.37
52625;BME280;38519;52.540;13.410;2023-04-12T10:23:09;99646.59;;;12.12;78.66
52625;BME280;38519;52.540;13.410;2023-04-12T10:25:36;99633.03;;;12.39;79.20
52625;BME280;38519;52.540;13.410;2023-04-12T10:28:15;99642.66;;;12.58;78.82
52625;BME280;38519;52.540;13.410;2023-04-12T10:30:41;99635.31;;;12.31;79.65
52625;BME280;38519;52.540;13.410;2023-04-12T10:33:10;99633.63;;;12.51;79.25
52625;BME280;38519;52.540;13.410;2023-04-12T10:35:59;99627.53;;;12.33;80.36
52625;BME280;38519;52.540;13.410;2023-04-12T10:38:26;99616.72;;;12.45;80.09
52625;BME280;38519;52.540;13.410;2023-04-12T10:43:46;99604.59;;;12.47;80.37
52625;BME280;38519;52.540;13.410;2023-04-12T10:49:07;99611.34;;;12.42;80.71
52625;BME280;38519;52.540;13.410;2023-04-12T10:51:33;99604.38;;;12.42;81.11
52625;BME280;38519;52.540;13.410;2023-04-12T10:59:02;99596.25;;;12.93;81.24
52625;BME280;38519;52.540;13.410;2023-04-12T11:01:28;99586.38;;;12.68;80.81
52625;BME280;38519;52.540;13.410;2023-04-12T11:14:50;99556.53;;;13.03;81.48
52625;BME280;38519;52.540;13.410;2023-04-12T11:19:41;99545.09;;;13.40;80.98
52625;BME280;38519;52.540;13.410;2023-04-12T11:22:10;99546.25;;;13.47;81.20
52625;BME280;38519;52.540;13.410;2023-04-12T11:24:43;99541.41;;;13.58;80.54
52625;BME280;38519;52.540;13.410;2023-04-12T11:27:09;99542.47;;;13.82;80.53
52625;BME280;38519;52.540;13.410;2023-04-12T11:29:34;99542.66;;;13.66;80.59
52625;BME280;38519;52.540;13.410;2023-04-12T11:32:08;99540.72;;;13.62;81.45
52625;BME280;38519;52.540;13.410;2023-04-12T11:34:34;99529.28;;;13.60;81.83
52625;BME280;38519;52.540;13.410;2023-04-12T11:37:02;99533.63;;;13.80;81.25
52625;BME280;38519;52.540;13.410;2023-04-12T11:39:35;99526.16;;;13.47;81.42
52625;BME280;38519;52.540;13.410;2023-04-12T11:42:00;99517.19;;;13.63;81.11
52625;BME280;38519;52.540;13.410;2023-04-12T11:44:27;99525.31;;;13.70;81.59
52625;BME280;38519;52.540;13.410;2023-04-12T11:46:52;99514.63;;;13.65;82.14
52625;BME280;38519;52.540;13.410;2023-04-12T11:49:19;99510.53;;;13.51;82.72
52625;BME280;38519;52.540;13.410;2023-04-12T11:51:44;99517.94;;;13.40;82.55
52625;BME280;38519;52.540;13.410;2023-04-12T11:54:10;99494.59;;;13.67;81.98
52625;BME280;38519;52.540;13.410;2023-04-12T11:56:35;99495.94;;;14.01;81.33
52625;BME280;38519;52.540;13.410;2023-04-12T11:59:01;99498.09;;;13.89;81.80
52625;BME280;38519;52.540;13.410;2023-04-12T12:01:26;99486.59;;;14.08;81.33
52625;BME280;38519;52.540;13.410;2023-04-12T12:03:53;99480.97;;;13.76;82.08
52625;BME280;38519;52.540;13.410;2023-04-12T12:06:18;99481.13;;;14.01;81.68
52625;BME280;38519;52.540;13.410;2023-04-12T12:08:44;99481.75;;;14.18;81.35
52625;BME280;38519;52.540;13.410;2023-04-12T12:11:10;99470.31;;;13.94;81.67
52625;BME280;38519;52.540;13.410;2023-04-12T12:13:48;99456.75;;;14.06;81.19
52625;BME280;38519;52.540;13.410;2023-04-12T12:16:14;99447.31;;;14.11;81.62
52625;BME280;38519;52.540;13.410;2023-04-12T12:18:40;99443.44;;;14.01;82.27
52625;BME280;38519;52.540;13.410;2023-04-12T12:21:07;99438.75;;;13.70;82.72
52625;BME280;38519;52.540;13.410;2023-04-12T12:23:33;99433.19;;;13.62;82.91
52625;BME280;38519;52.540;13.410;2023-04-12T12:25:59;99426.88;;;13.57;83.10
52625;BME280;38519;52.540;13.410;2023-04-12T12:28:25;99427.31;;;13.68;83.44
52625;BME280;38519;52.540;13.410;2023-04-12T12:30:56;99418.41;;;13.64;83.32
52625;BME280;38519;52.540;13.410;2023-04-12T12:33:21;99413.53;;;13.96;83.87
52625;BME280;38519;52.540;13.410;2023-04-12T12:35:53;99417.00;;;13.95;82.95
52625;BME280;38519;52.540;13.410;2023-04-12T12:38:18;99404.22;;;14.28;82.80
52625;BME280;38519;52.540;13.410;2023-04-12T12:40:45;99394.75;;;14.09;83.44
52625;BME280;38519;52.540;13.410;2023-04-12T12:43:15;99379.25;;;14.39;82.32
52625;BME280;38519;52.540;13.410;2023-04-12T12:45:41;99395.97;;;14.17;83.38
52625;BME280;38519;52.540;13.410;2023-04-12T12:48:06;99386.72;;;14.27;82.86
52625;BME280;38519;52.540;13.410;2023-04-12T12:50:32;99387.69;;;14.79;81.44
52625;BME280;38519;52.540;13.410;2023-04-12T12:52:58;99393.19;;;14.37;82.64
52625;BME280;38519;52.540;13.410;2023-04-12T12:55:25;99385.50;;;13.95;83.76
52625;BME280;38519;52.540;13.410;2023-04-12T12:57:51;99374.84;;;14.14;83.32
52625;BME280;38519;52.540;13.410;2023-04-12T13:00:18;99371.53;;;13.96;83.79
52625;BME280;38519;52.540;13.410;2023-04-12T13:02:44;99372.44;;;13.74;84.56
52625;BME280;38519;52.540;13.410;2023-04-12T13:05:09;99372.59;;;14.25;84.02
52625;BME280;38519;52.540;13.410;2023-04-12T13:07:35;99378.06;;;14.55;82.90
52625;BME280;38519;52.540;13.410;2023-04-12T13:10:00;99373.47;;;14.24;83.65
52625;BME280;38519;52.540;13.410;2023-04-12T13:12:25;99363.94;;;14.03;84.05
52625;BME280;38519;52.540;13.410;2023-04-12T13:14:51;99350.19;;;14.11;84.07